sensor_id;sensor_type;location;lat;lon;timestamp;P1;durP1;ratioP1;P2;durP2;ratioP2
15486;SDS011;7845;53.698;10.078;2022-09-13T00:00:40;5.03;;;3.50;;
15486;SDS011;7845;53.698;10.078;2022-09-13T00:03:10;5.53;;;3.10;;
15486;SDS011;7845;53.698;10.078;2022-09-13T00:05:37;5.27;;;3.57;;
15486;SDS011;7845;53.698;10.078;2022-09-13T00:08:02;4.90;;;3.87;;
15486;SDS011;7845;53.698;10.078;2022-09-13T00:10:28;6.20;;;3.70;;
15486;SDS011;7845;53.698;10.078;2022-09-13T00:12:54;4.67;;;3.20;;
15486;SDS011;7845;53.698;10.078;2022-09-13T00:15:20;4.90;;;3.33;;
15486;SDS011;7845;53.698;10.078;2022-09-13T00:17:46;5.60;;;3.27;;
15486;SDS011;7845;53.698;10.078;2022-09-13T00:20:11;5.33;;;3.17;;
15486;SDS011;7845;53.698;10.078;2022-09-13T00:22:37;5.13;;;3.57;;
15486;SDS011;7845;53.698;10.078;2022-09-13T00:25:03;5.30;;;3.30;;
15486;SDS011;7845;53.698;10.078;2022-09-13T00:27:31;5.73;;;3.40;;
15486;SDS011;7845;53.698;10.078;2022-09-13T00:29:57;5.30;;;3.60;;
15486;SDS011;7845;53.698;10.078;2022-09-13T00:32:22;4.90;;;3.20;;
15486;SDS011;7845;53.698;10.078;2022-09-13T00:34:48;7.37;;;4.37;;
15486;SDS011;7845;53.698;10.078;2022-09-13T00:37:13;5.40;;;3.30;;
15486;SDS011;7845;53.698;10.078;2022-09-13T00:39:39;5.30;;;3.00;;
15486;SDS011;7845;53.698;10.078;2022-09-13T00:42:04;5.43;;;4.20;;
15486;SDS011;7845;53.698;10.078;2022-09-13T00:47:19;5.40;;;3.80;;
15486;SDS011;7845;53.698;10.078;2022-09-13T00:50:08;6.93;;;4.10;;
15486;SDS011;7845;53.698;10.078;2022-09-13T00:52:42;5.60;;;3.90;;
15486;SDS011;7845;53.698;10.078;2022-09-13T00:55:15;5.70;;;3.87;;
15486;SDS011;7845;53.698;10.078;2022-09-13T00:57:45;5.70;;;4.00;;
15486;SDS011;7845;53.698;10.078;2022-09-13T01:00:12;5.77;;;4.20;;
15486;SDS011;7845;53.698;10.078;2022-09-13T01:02:41;6.60;;;4.20;;
15486;SDS011;7845;53.698;10.078;2022-09-13T01:05:12;5.00;;;3.63;;
15486;SDS011;7845;53.698;10.078;2022-09-13T01:07:39;6.03;;;4.27;;
15486;SDS011;7845;53.698;10.078;2022-09-13T01:10:06;7.80;;;4.57;;
15486;SDS011;7845;53.698;10.078;2022-09-13T01:12:53;5.90;;;4.10;;
15486;SDS011;7845;53.698;10.078;2022-09-13T01:15:25;6.93;;;4.07;;
15486;SDS011;7845;53.698;10.078;2022-09-13T01:17:51;8.63;;;4.63;;
15486;SDS011;7845;53.698;10.078;2022-09-13T01:20:18;7.77;;;5.03;;
15486;SDS011;7845;53.698;10.078;2022-09-13T01:25:47;5.80;;;4.30;;
15486;SDS011;7845;53.698;10.078;2022-09-13T01:28:36;6.73;;;4.13;;
15486;SDS011;7845;53.698;10.078;2022-09-13T01:31:44;6.10;;;4.57;;
15486;SDS011;7845;53.698;10.078;2022-09-13T01:37:13;6.87;;;4.40;;
15486;SDS011;7845;53.698;10.078;2022-09-13T01:45:34;6.00;;;4.10;;
15486;SDS011;7845;53.698;10.078;2022-09-13T01:48:33;8.33;;;4.60;;
15486;SDS011;7845;53.698;10.078;2022-09-13T01:51:36;7.20;;;5.50;;
15486;SDS011;7845;53.698;10.078;2022-09-13T01:56:50;6.57;;;4.20;;
15486;SDS011;7845;53.698;10.078;2022-09-13T02:02:18;5.60;;;4.20;;
15486;SDS011;7845;53.698;10.078;2022-09-13T02:05:11;6.20;;;5.00;;
15486;SDS011;7845;53.698;10.078;2022-09-13T02:07:59;6.70;;;4.87;;
15486;SDS011;7845;53.698;10.078;2022-09-13T02:10:34;6.23;;;4.73;;
15486;SDS011;7845;53.698;10.078;2022-09-13T02:13:06;8.93;;;5.10;;
15486;SDS011;7845;53.698;10.078;2022-09-13T02:15:38;10.70;;;4.47;;
15486;SDS011;7845;53.698;10.078;2022-09-13T02:18:11;6.60;;;4.63;;
15486;SDS011;7845;53.698;10.078;2022-09-13T02:20:44;6.37;;;4.90;;
15486;SDS011;7845;53.698;10.078;2022-09-13T02:23:14;5.63;;;4.57;;
15486;SDS011;7845;53.698;10.078;2022-09-13T02:25:45;7.07;;;4.73;;
15486;SDS011;7845;53.698;10.078;2022-09-13T02:28:20;7.10;;;4.57;;
15486;SDS011;7845;53.698;10.078;2022-09-13T02:30:51;9.20;;;5.40;;
15486;SDS011;7845;53.698;10.078;2022-09-13T02:33:23;7.23;;;4.83;;
15486;SDS011;7845;53.698;10.078;2022-09-13T02:38:27;6.90;;;4.90;;
15486;SDS011;7845;53.698;10.078;2022-09-13T02:40:58;6.10;;;4.50;;
15486;SDS011;7845;53.698;10.078;2022-09-13T02:43:34;6.20;;;4.17;;
15486;SDS011;7845;53.698;10.078;2022-09-13T02:51:50;6.63;;;5.00;;
15486;SDS011;7845;53.698;10.078;2022-09-13T02:57:26;6.73;;;5.30;;
15486;SDS011;7845;53.698;10.078;2022-09-13T02:59:56;8.00;;;5.67;;
15486;SDS011;7845;53.698;10.078;2022-09-13T03:02:22;6.80;;;5.37;;
15486;SDS011;7845;53.698;10.078;2022-09-13T03:04:52;6.60;;;4.80;;
15486;SDS011;7845;53.698;10.078;2022-09-13T03:07:18;6.47;;;5.07;;
15486;SDS011;7845;53.698;10.078;2022-09-13T03:09:51;7.50;;;5.87;;
15486;SDS011;7845;53.698;10.078;2022-09-13T03:21:08;7.40;;;4.97;;
15486;SDS011;7845;53.698;10.078;2022-09-13T03:29:24;10.83;;;5.43;;
15486;SDS011;7845;53.698;10.078;2022-09-13T03:32:09;7.07;;;5.10;;
15486;SDS011;7845;53.698;10.078;2022-09-13T03:34:48;8.50;;;5.53;;
15486;SDS011;7845;53.698;10.078;2022-09-13T03:37:26;8.77;;;5.40;;
15486;SDS011;7845;53.698;10.078;2022-09-13T03:40:15;7.50;;;5.37;;
15486;SDS011;7845;53.698;10.078;2022-09-13T03:42:51;8.13;;;6.20;;
15486;SDS011;7845;53.698;10.078;2022-09-13T03:45:47;9.97;;;6.50;;
15486;SDS011;7845;53.698;10.078;2022-09-13T03:48:16;10.00;;;6.50;;
15486;SDS011;7845;53.698;10.078;2022-09-13T03:50:45;7.70;;;5.43;;
15486;SDS011;7845;53.698;10.078;2022-09-13T03:53:12;7.70;;;5.80;;
15486;SDS011;7845;53.698;10.078;2022-09-13T03:55:42;8.33;;;5.73;;
15486;SDS011;7845;53.698;10.078;2022-09-13T03:58:10;8.77;;;5.27;;
15486;SDS011;7845;53.698;10.078;2022-09-13T04:00:36;8.70;;;5.80;;
15486;SDS011;7845;53.698;10.078;2022-09-13T04:03:04;8.13;;;5.90;;
15486;SDS011;7845;53.698;10.078;2022-09-13T04:05:33;11.13;;;6.63;;
15486;SDS011;7845;53.698;10.078;2022-09-13T04:08:00;9.27;;;6.10;;
15486;SDS011;7845;53.698;10.078;2022-09-13T04:10:43;9.73;;;6.60;;
15486;SDS011;7845;53.698;10.078;2022-09-13T04:13:10;8.70;;;6.37;;
15486;SDS011;7845;53.698;10.078;2022-09-13T04:15:35;9.77;;;6.80;;
15486;SDS011;7845;53.698;10.078;2022-09-13T04:18:01;10.50;;;7.73;;
15486;SDS011;7845;53.698;10.078;2022-09-13T04:20:26;9.43;;;7.07;;
15486;SDS011;7845;53.698;10.078;2022-09-13T04:22:52;10.00;;;7.33;;
15486;SDS011;7845;53.698;10.078;2022-09-13T04:25:20;13.20;;;8.80;;
15486;SDS011;7845;53.698;10.078;2022-09-13T04:27:46;11.83;;;8.70;;
15486;SDS011;7845;53.698;10.078;2022-09-13T04:30:12;12.23;;;9.07;;
15486;SDS011;7845;53.698;10.078;2022-09-13T04:32:37;11.67;;;8.90;;
15486;SDS011;7845;53.698;10.078;2022-09-13T04:35:03;10.30;;;7.80;;
15486;SDS011;7845;53.698;10.078;2022-09-13T04:37:29;11.53;;;9.00;;
15486;SDS011;7845;53.698;10.078;2022-09-13T04:39:58;13.10;;;8.47;;
15486;SDS011;7845;53.698;10.078;2022-09-13T04:42:24;12.10;;;9.87;;
15486;SDS011;7845;53.698;10.078;2022-09-13T04:45:00;13.63;;;10.47;;
15486;SDS011;7845;53.698;10.078;2022-09-13T04:47:26;13.60;;;10.00;;
15486;SDS011;7845;53.698;10.078;2022-09-13T04:49:51;13.93;;;10.27;;
15486;SDS011;7845;53.698;10.078;2022-09-13T04:52:17;12.67;;;9.10;;
15486;SDS011;7845;53.698;10.078;2022-09-13T04:54:42;14.17;;;10.23;;
15486;SDS011;7845;53.698;10.078;2022-09-13T04:57:08;14.50;;;11.07;;
15486;SDS011;7845;53.698;10.078;2022-09-13T04:59:36;16.93;;;12.60;;
15486;SDS011;7845;53.698;10.078;2022-09-13T05:02:05;17.57;;;12.50;;
15486;SDS011;7845;53.698;10.078;2022-09-13T05:04:30;14.67;;;10.63;;
15486;SDS011;7845;53.698;10.078;2022-09-13T05:07:06;16.40;;;12.73;;
15486;SDS011;7845;53.698;10.078;2022-09-13T05:09:31;17.83;;;13.70;;
15486;SDS011;7845;53.698;10.078;2022-09-13T05:11:59;18.23;;;12.83;;
15486;SDS011;7845;53.698;10.078;2022-09-13T05:14:25;18.53;;;13.30;;
15486;SDS011;7845;53.698;10.078;2022-09-13T05:16:53;15.77;;;12.80;;
15486;SDS011;7845;53.698;10.078;2022-09-13T05:19:18;18.20;;;13.37;;
15486;SDS011;7845;53.698;10.078;2022-09-13T05:21:44;17.57;;;13.90;;
15486;SDS011;7845;53.698;10.078;2022-09-13T05:24:09;19.23;;;15.40;;
15486;SDS011;7845;53.698;10.078;2022-09-13T05:26:35;21.03;;;15.17;;
15486;SDS011;7845;53.698;10.078;2022-09-13T05:29:04;21.13;;;15.37;;
15486;SDS011;7845;53.698;10.078;2022-09-13T05:31:37;19.80;;;15.40;;
15486;SDS011;7845;53.698;10.078;2022-09-13T05:34:04;19.30;;;12.90;;
15486;SDS011;7845;53.698;10.078;2022-09-13T05:36:31;18.50;;;14.50;;
15486;SDS011;7845;53.698;10.078;2022-09-13T05:38:58;19.33;;;14.77;;
15486;SDS011;7845;53.698;10.078;2022-09-13T05:41:23;19.07;;;16.23;;
15486;SDS011;7845;53.698;10.078;2022-09-13T05:43:48;18.07;;;13.43;;
15486;SDS011;7845;53.698;10.078;2022-09-13T05:46:15;17.17;;;14.20;;
15486;SDS011;7845;53.698;10.078;2022-09-13T05:48:43;19.63;;;15.20;;
15486;SDS011;7845;53.698;10.078;2022-09-13T05:51:10;17.83;;;14.20;;
15486;SDS011;7845;53.698;10.078;2022-09-13T05:53:38;19.07;;;14.80;;
15486;SDS011;7845;53.698;10.078;2022-09-13T05:56:24;18.50;;;14.83;;
15486;SDS011;7845;53.698;10.078;2022-09-13T05:59:11;22.43;;;16.70;;
15486;SDS011;7845;53.698;10.078;2022-09-13T06:01:43;21.57;;;15.53;;
15486;SDS011;7845;53.698;10.078;2022-09-13T06:04:11;20.43;;;15.27;;
15486;SDS011;7845;53.698;10.078;2022-09-13T06:06:41;17.53;;;13.37;;
15486;SDS011;7845;53.698;10.078;2022-09-13T06:09:06;18.73;;;13.80;;
15486;SDS011;7845;53.698;10.078;2022-09-13T06:11:35;20.97;;;14.50;;
15486;SDS011;7845;53.698;10.078;2022-09-13T06:14:00;17.77;;;13.50;;
15486;SDS011;7845;53.698;10.078;2022-09-13T06:16:25;20.77;;;15.90;;
15486;SDS011;7845;53.698;10.078;2022-09-13T06:18:54;21.43;;;15.00;;
15486;SDS011;7845;53.698;10.078;2022-09-13T06:21:20;18.30;;;13.90;;
15486;SDS011;7845;53.698;10.078;2022-09-13T06:23:47;22.60;;;17.20;;
15486;SDS011;7845;53.698;10.078;2022-09-13T06:26:19;24.67;;;16.70;;
15486;SDS011;7845;53.698;10.078;2022-09-13T06:28:46;18.40;;;14.90;;
15486;SDS011;7845;53.698;10.078;2022-09-13T06:31:17;18.80;;;14.47;;
15486;SDS011;7845;53.698;10.078;2022-09-13T06:33:46;19.30;;;14.00;;
15486;SDS011;7845;53.698;10.078;2022-09-13T06:36:13;21.73;;;14.17;;
15486;SDS011;7845;53.698;10.078;2022-09-13T06:38:42;16.53;;;12.80;;
15486;SDS011;7845;53.698;10.078;2022-09-13T06:41:11;19.77;;;14.27;;
15486;SDS011;7845;53.698;10.078;2022-09-13T06:43:42;16.73;;;12.70;;
15486;SDS011;7845;53.698;10.078;2022-09-13T06:46:09;16.93;;;12.70;;
15486;SDS011;7845;53.698;10.078;2022-09-13T06:48:38;14.73;;;11.23;;
15486;SDS011;7845;53.698;10.078;2022-09-13T06:51:08;15.43;;;12.40;;
15486;SDS011;7845;53.698;10.078;2022-09-13T06:53:38;19.50;;;12.83;;
15486;SDS011;7845;53.698;10.078;2022-09-13T06:56:06;16.83;;;12.30;;
15486;SDS011;7845;53.698;10.078;2022-09-13T06:58:36;17.97;;;13.07;;
15486;SDS011;7845;53.698;10.078;2022-09-13T07:03:45;18.43;;;11.23;;
15486;SDS011;7845;53.698;10.078;2022-09-13T07:06:15;14.80;;;11.23;;
15486;SDS011;7845;53.698;10.078;2022-09-13T07:08:42;14.53;;;11.07;;
15486;SDS011;7845;53.698;10.078;2022-09-13T07:11:09;12.10;;;9.90;;
15486;SDS011;7845;53.698;10.078;2022-09-13T07:13:36;19.30;;;12.60;;
15486;SDS011;7845;53.698;10.078;2022-09-13T07:16:04;16.40;;;12.20;;
15486;SDS011;7845;53.698;10.078;2022-09-13T07:18:30;14.87;;;11.00;;
15486;SDS011;7845;53.698;10.078;2022-09-13T07:20:59;14.63;;;10.90;;
15486;SDS011;7845;53.698;10.078;2022-09-13T07:23:33;14.67;;;10.40;;
15486;SDS011;7845;53.698;10.078;2022-09-13T07:26:00;14.90;;;10.30;;
15486;SDS011;7845;53.698;10.078;2022-09-13T07:28:29;14.40;;;10.87;;
15486;SDS011;7845;53.698;10.078;2022-09-13T07:31:10;14.40;;;10.13;;
15486;SDS011;7845;53.698;10.078;2022-09-13T07:33:38;11.97;;;7.97;;
15486;SDS011;7845;53.698;10.078;2022-09-13T07:36:06;12.93;;;9.00;;
15486;SDS011;7845;53.698;10.078;2022-09-13T07:38:35;15.73;;;8.93;;
15486;SDS011;7845;53.698;10.078;2022-09-13T07:41:16;12.83;;;7.77;;
15486;SDS011;7845;53.698;10.078;2022-09-13T07:43:45;11.70;;;7.40;;
15486;SDS011;7845;53.698;10.078;2022-09-13T07:46:13;10.43;;;7.00;;
15486;SDS011;7845;53.698;10.078;2022-09-13T07:48:43;12.30;;;7.77;;
15486;SDS011;7845;53.698;10.078;2022-09-13T07:53:45;13.07;;;7.80;;
15486;SDS011;7845;53.698;10.078;2022-09-13T07:56:19;12.40;;;7.70;;
15486;SDS011;7845;53.698;10.078;2022-09-13T07:58:47;12.17;;;6.87;;
15486;SDS011;7845;53.698;10.078;2022-09-13T08:03:40;10.83;;;7.23;;
15486;SDS011;7845;53.698;10.078;2022-09-13T08:06:07;11.77;;;5.77;;
15486;SDS011;7845;53.698;10.078;2022-09-13T08:08:32;11.80;;;5.60;;
15486;SDS011;7845;53.698;10.078;2022-09-13T08:11:03;18.43;;;6.03;;
15486;SDS011;7845;53.698;10.078;2022-09-13T08:13:31;13.17;;;4.87;;
15486;SDS011;7845;53.698;10.078;2022-09-13T08:16:01;10.63;;;5.50;;
15486;SDS011;7845;53.698;10.078;2022-09-13T08:18:30;8.63;;;4.60;;
15486;SDS011;7845;53.698;10.078;2022-09-13T08:20:56;7.90;;;4.50;;
15486;SDS011;7845;53.698;10.078;2022-09-13T08:23:23;11.70;;;4.90;;
15486;SDS011;7845;53.698;10.078;2022-09-13T08:25:49;8.73;;;4.23;;
15486;SDS011;7845;53.698;10.078;2022-09-13T08:28:19;8.90;;;3.70;;
15486;SDS011;7845;53.698;10.078;2022-09-13T08:30:48;8.20;;;2.90;;
15486;SDS011;7845;53.698;10.078;2022-09-13T08:33:14;4.80;;;2.07;;
15486;SDS011;7845;53.698;10.078;2022-09-13T08:35:39;6.03;;;2.17;;
15486;SDS011;7845;53.698;10.078;2022-09-13T08:38:05;6.40;;;2.10;;
15486;SDS011;7845;53.698;10.078;2022-09-13T08:40:32;5.60;;;1.70;;
15486;SDS011;7845;53.698;10.078;2022-09-13T08:45:39;7.47;;;1.10;;
15486;SDS011;7845;53.698;10.078;2022-09-13T08:48:11;10.57;;;2.73;;
15486;SDS011;7845;53.698;10.078;2022-09-13T08:50:45;5.70;;;1.57;;
15486;SDS011;7845;53.698;10.078;2022-09-13T09:01:27;6.00;;;1.30;;
15486;SDS011;7845;53.698;10.078;2022-09-13T09:04:49;6.20;;;1.20;;
15486;SDS011;7845;53.698;10.078;2022-09-13T09:07:21;4.07;;;0.90;;
15486;SDS011;7845;53.698;10.078;2022-09-13T09:12:40;5.73;;;1.00;;
15486;SDS011;7845;53.698;10.078;2022-09-13T09:15:13;6.80;;;1.20;;
15486;SDS011;7845;53.698;10.078;2022-09-13T09:18:02;5.43;;;0.97;;
15486;SDS011;7845;53.698;10.078;2022-09-13T09:20:38;4.40;;;1.50;;
15486;SDS011;7845;53.698;10.078;2022-09-13T09:23:13;5.33;;;1.00;;
15486;SDS011;7845;53.698;10.078;2022-09-13T09:25:42;5.03;;;1.33;;
15486;SDS011;7845;53.698;10.078;2022-09-13T09:28:20;7.37;;;1.10;;
15486;SDS011;7845;53.698;10.078;2022-09-13T09:31:09;5.23;;;1.37;;
15486;SDS011;7845;53.698;10.078;2022-09-13T09:33:51;5.30;;;1.03;;
15486;SDS011;7845;53.698;10.078;2022-09-13T09:36:33;5.70;;;1.00;;
15486;SDS011;7845;53.698;10.078;2022-09-13T09:39:11;3.67;;;0.73;;
15486;SDS011;7845;53.698;10.078;2022-09-13T09:41:40;5.83;;;1.50;;
15486;SDS011;7845;53.698;10.078;2022-09-13T09:46:34;5.47;;;1.27;;
15486;SDS011;7845;53.698;10.078;2022-09-13T09:52:09;5.10;;;0.90;;
15486;SDS011;7845;53.698;10.078;2022-09-13T09:54:45;5.00;;;0.83;;
15486;SDS011;7845;53.698;10.078;2022-09-13T10:00:15;5.43;;;0.70;;
15486;SDS011;7845;53.698;10.078;2022-09-13T10:02:44;5.40;;;0.83;;
15486;SDS011;7845;53.698;10.078;2022-09-13T10:05:12;6.10;;;1.23;;
15486;SDS011;7845;53.698;10.078;2022-09-13T10:07:38;5.47;;;1.00;;
15486;SDS011;7845;53.698;10.078;2022-09-13T10:10:18;6.07;;;1.10;;
15486;SDS011;7845;53.698;10.078;2022-09-13T10:12:52;5.67;;;1.00;;
15486;SDS011;7845;53.698;10.078;2022-09-13T10:15:25;8.43;;;1.43;;
15486;SDS011;7845;53.698;10.078;2022-09-13T10:20:42;5.00;;;1.10;;
15486;SDS011;7845;53.698;10.078;2022-09-13T10:23:25;4.90;;;1.20;;
15486;SDS011;7845;53.698;10.078;2022-09-13T10:25:59;6.73;;;2.30;;
15486;SDS011;7845;53.698;10.078;2022-09-13T10:28:55;8.70;;;1.10;;
15486;SDS011;7845;53.698;10.078;2022-09-13T10:31:27;6.53;;;1.40;;
15486;SDS011;7845;53.698;10.078;2022-09-13T10:33:59;6.87;;;1.30;;
15486;SDS011;7845;53.698;10.078;2022-09-13T10:36:30;7.83;;;1.80;;
15486;SDS011;7845;53.698;10.078;2022-09-13T10:38:58;4.00;;;0.83;;
15486;SDS011;7845;53.698;10.078;2022-09-13T10:41:31;6.30;;;1.20;;
15486;SDS011;7845;53.698;10.078;2022-09-13T10:47:11;6.23;;;1.40;;
15486;SDS011;7845;53.698;10.078;2022-09-13T10:49:47;5.67;;;1.27;;
15486;SDS011;7845;53.698;10.078;2022-09-13T10:52:32;7.73;;;1.73;;
15486;SDS011;7845;53.698;10.078;2022-09-13T11:00:17;5.83;;;1.40;;
15486;SDS011;7845;53.698;10.078;2022-09-13T11:05:44;7.17;;;1.30;;
15486;SDS011;7845;53.698;10.078;2022-09-13T11:08:36;5.60;;;0.90;;
15486;SDS011;7845;53.698;10.078;2022-09-13T11:16:47;5.53;;;1.40;;
15486;SDS011;7845;53.698;10.078;2022-09-13T11:35:32;5.60;;;1.43;;
15486;SDS011;7845;53.698;10.078;2022-09-13T11:38:24;8.13;;;1.33;;
15486;SDS011;7845;53.698;10.078;2022-09-13T11:40:57;6.27;;;1.10;;
15486;SDS011;7845;53.698;10.078;2022-09-13T11:51:46;4.67;;;1.20;;
15486;SDS011;7845;53.698;10.078;2022-09-13T11:54:34;6.50;;;1.17;;
15486;SDS011;7845;53.698;10.078;2022-09-13T11:57:41;7.70;;;1.37;;
15486;SDS011;7845;53.698;10.078;2022-09-13T12:00:26;6.90;;;1.23;;
15486;SDS011;7845;53.698;10.078;2022-09-13T12:05:29;7.07;;;1.50;;
15486;SDS011;7845;53.698;10.078;2022-09-13T12:08:44;8.60;;;0.97;;
15486;SDS011;7845;53.698;10.078;2022-09-13T12:11:07;6.17;;;1.20;;
15486;SDS011;7845;53.698;10.078;2022-09-13T12:13:56;5.90;;;1.00;;
15486;SDS011;7845;53.698;10.078;2022-09-13T12:16:32;5.00;;;1.30;;
15486;SDS011;7845;53.698;10.078;2022-09-13T12:19:06;5.70;;;1.00;;
15486;SDS011;7845;53.698;10.078;2022-09-13T12:21:45;5.10;;;1.20;;
15486;SDS011;7845;53.698;10.078;2022-09-13T12:24:14;5.00;;;0.90;;
15486;SDS011;7845;53.698;10.078;2022-09-13T12:27:00;8.10;;;1.30;;
15486;SDS011;7845;53.698;10.078;2022-09-13T12:29:31;6.40;;;1.57;;
15486;SDS011;7845;53.698;10.078;2022-09-13T12:32:07;7.07;;;1.80;;
15486;SDS011;7845;53.698;10.078;2022-09-13T12:34:53;5.50;;;1.00;;
15486;SDS011;7845;53.698;10.078;2022-09-13T12:40:15;7.07;;;1.10;;
15486;SDS011;7845;53.698;10.078;2022-09-13T12:46:49;4.80;;;0.97;;
15486;SDS011;7845;53.698;10.078;2022-09-13T12:52:26;4.90;;;0.80;;
15486;SDS011;7845;53.698;10.078;2022-09-13T13:01:10;6.47;;;0.97;;
15486;SDS011;7845;53.698;10.078;2022-09-13T13:03:46;5.00;;;1.10;;
15486;SDS011;7845;53.698;10.078;2022-09-13T13:09:24;6.90;;;1.07;;
15486;SDS011;7845;53.698;10.078;2022-09-13T13:11:58;4.20;;;1.10;;
15486;SDS011;7845;53.698;10.078;2022-09-13T13:23:21;8.97;;;1.00;;
15486;SDS011;7845;53.698;10.078;2022-09-13T13:25:54;10.20;;;2.13;;
15486;SDS011;7845;53.698;10.078;2022-09-13T13:36:43;6.83;;;1.00;;
15486;SDS011;7845;53.698;10.078;2022-09-13T13:46:52;5.27;;;0.87;;
15486;SDS011;7845;53.698;10.078;2022-09-13T13:57:23;4.80;;;1.07;;
15486;SDS011;7845;53.698;10.078;2022-09-13T14:00:36;5.60;;;1.10;;
15486;SDS011;7845;53.698;10.078;2022-09-13T14:05:19;8.33;;;1.47;;
15486;SDS011;7845;53.698;10.078;2022-09-13T14:16:53;8.17;;;1.20;;
15486;SDS011;7845;53.698;10.078;2022-09-13T14:19:43;6.20;;;1.47;;
15486;SDS011;7845;53.698;10.078;2022-09-13T14:22:19;6.03;;;1.13;;
15486;SDS011;7845;53.698;10.078;2022-09-13T14:24:52;7.37;;;1.40;;
15486;SDS011;7845;53.698;10.078;2022-09-13T14:27:26;8.50;;;1.50;;
15486;SDS011;7845;53.698;10.078;2022-09-13T14:29:59;6.83;;;1.70;;
15486;SDS011;7845;53.698;10.078;2022-09-13T14:32:29;8.77;;;1.40;;
15486;SDS011;7845;53.698;10.078;2022-09-13T14:35:05;4.83;;;1.00;;
15486;SDS011;7845;53.698;10.078;2022-09-13T14:37:32;6.27;;;1.10;;
15486;SDS011;7845;53.698;10.078;2022-09-13T14:42:39;6.97;;;1.60;;
15486;SDS011;7845;53.698;10.078;2022-09-13T14:45:15;4.90;;;1.23;;
15486;SDS011;7845;53.698;10.078;2022-09-13T14:50:18;5.90;;;1.20;;
15486;SDS011;7845;53.698;10.078;2022-09-13T14:52:48;4.97;;;0.83;;
15486;SDS011;7845;53.698;10.078;2022-09-13T14:55:18;5.90;;;1.30;;
15486;SDS011;7845;53.698;10.078;2022-09-13T14:57:55;6.40;;;1.10;;
15486;SDS011;7845;53.698;10.078;2022-09-13T15:00:27;6.93;;;1.30;;
15486;SDS011;7845;53.698;10.078;2022-09-13T15:02:57;8.17;;;1.53;;
15486;SDS011;7845;53.698;10.078;2022-09-13T15:05:27;8.03;;;2.70;;
15486;SDS011;7845;53.698;10.078;2022-09-13T15:07:56;7.03;;;1.20;;
15486;SDS011;7845;53.698;10.078;2022-09-13T15:17:51;6.73;;;1.13;;
15486;SDS011;7845;53.698;10.078;2022-09-13T15:20:18;8.20;;;1.30;;
15486;SDS011;7845;53.698;10.078;2022-09-13T15:22:45;9.57;;;1.70;;
15486;SDS011;7845;53.698;10.078;2022-09-13T15:25:24;4.20;;;0.87;;
15486;SDS011;7845;53.698;10.078;2022-09-13T15:27:51;4.87;;;0.80;;
15486;SDS011;7845;53.698;10.078;2022-09-13T15:33:02;8.43;;;1.30;;
15486;SDS011;7845;53.698;10.078;2022-09-13T15:35:37;6.10;;;1.27;;
15486;SDS011;7845;53.698;10.078;2022-09-13T15:38:14;8.40;;;1.33;;
15486;SDS011;7845;53.698;10.078;2022-09-13T15:40:43;6.57;;;1.20;;
15486;SDS011;7845;53.698;10.078;2022-09-13T15:43:13;7.53;;;1.50;;
15486;SDS011;7845;53.698;10.078;2022-09-13T15:45:39;6.37;;;0.93;;
15486;SDS011;7845;53.698;10.078;2022-09-13T15:48:04;5.60;;;1.20;;
15486;SDS011;7845;53.698;10.078;2022-09-13T15:50:30;8.33;;;1.60;;
15486;SDS011;7845;53.698;10.078;2022-09-13T15:52:57;7.53;;;1.20;;
15486;SDS011;7845;53.698;10.078;2022-09-13T15:55:24;6.10;;;1.10;;
15486;SDS011;7845;53.698;10.078;2022-09-13T15:57:51;5.17;;;1.40;;
15486;SDS011;7845;53.698;10.078;2022-09-13T16:00:17;5.77;;;1.27;;
15486;SDS011;7845;53.698;10.078;2022-09-13T16:02:48;4.50;;;1.10;;
15486;SDS011;7845;53.698;10.078;2022-09-13T16:05:14;5.30;;;1.40;;
15486;SDS011;7845;53.698;10.078;2022-09-13T16:07:40;6.40;;;1.23;;
15486;SDS011;7845;53.698;10.078;2022-09-13T16:10:11;6.80;;;1.07;;
15486;SDS011;7845;53.698;10.078;2022-09-13T16:12:39;7.57;;;1.20;;
15486;SDS011;7845;53.698;10.078;2022-09-13T16:15:06;7.53;;;1.00;;
15486;SDS011;7845;53.698;10.078;2022-09-13T16:17:32;6.63;;;1.30;;
15486;SDS011;7845;53.698;10.078;2022-09-13T16:19:57;5.60;;;0.80;;
15486;SDS011;7845;53.698;10.078;2022-09-13T16:22:23;7.17;;;0.97;;
15486;SDS011;7845;53.698;10.078;2022-09-13T16:24:48;4.57;;;0.80;;
15486;SDS011;7845;53.698;10.078;2022-09-13T16:27:14;6.00;;;1.40;;
15486;SDS011;7845;53.698;10.078;2022-09-13T16:29:41;5.60;;;1.30;;
15486;SDS011;7845;53.698;10.078;2022-09-13T16:32:07;3.60;;;0.80;;
15486;SDS011;7845;53.698;10.078;2022-09-13T16:34:32;5.47;;;0.90;;
15486;SDS011;7845;53.698;10.078;2022-09-13T16:36:58;4.53;;;0.60;;
15486;SDS011;7845;53.698;10.078;2022-09-13T16:39:24;4.80;;;1.20;;
15486;SDS011;7845;53.698;10.078;2022-09-13T16:41:49;5.00;;;0.90;;
15486;SDS011;7845;53.698;10.078;2022-09-13T16:44:15;8.70;;;1.10;;
15486;SDS011;7845;53.698;10.078;2022-09-13T16:46:42;4.03;;;0.60;;
15486;SDS011;7845;53.698;10.078;2022-09-13T16:49:08;4.73;;;0.80;;
15486;SDS011;7845;53.698;10.078;2022-09-13T16:51:33;4.73;;;0.80;;
15486;SDS011;7845;53.698;10.078;2022-09-13T16:53:59;6.23;;;1.30;;
15486;SDS011;7845;53.698;10.078;2022-09-13T16:56:25;4.50;;;0.80;;
15486;SDS011;7845;53.698;10.078;2022-09-13T16:58:51;4.83;;;0.80;;
15486;SDS011;7845;53.698;10.078;2022-09-13T17:01:19;4.27;;;0.80;;
15486;SDS011;7845;53.698;10.078;2022-09-13T17:03:47;3.20;;;0.60;;
15486;SDS011;7845;53.698;10.078;2022-09-13T17:06:14;4.70;;;1.13;;
15486;SDS011;7845;53.698;10.078;2022-09-13T17:08:49;7.77;;;1.70;;
15486;SDS011;7845;53.698;10.078;2022-09-13T17:11:17;4.30;;;0.70;;
15486;SDS011;7845;53.698;10.078;2022-09-13T17:13:44;7.43;;;1.30;;
15486;SDS011;7845;53.698;10.078;2022-09-13T17:16:18;6.00;;;1.10;;
15486;SDS011;7845;53.698;10.078;2022-09-13T17:18:46;5.83;;;1.10;;
15486;SDS011;7845;53.698;10.078;2022-09-13T17:21:12;5.03;;;0.90;;
15486;SDS011;7845;53.698;10.078;2022-09-13T17:23:37;6.17;;;1.20;;
15486;SDS011;7845;53.698;10.078;2022-09-13T17:26:03;4.50;;;0.80;;
15486;SDS011;7845;53.698;10.078;2022-09-13T17:28:28;6.90;;;1.30;;
15486;SDS011;7845;53.698;10.078;2022-09-13T17:30:53;5.30;;;1.10;;
15486;SDS011;7845;53.698;10.078;2022-09-13T17:33:19;6.47;;;1.07;;
15486;SDS011;7845;53.698;10.078;2022-09-13T17:35:44;6.10;;;1.00;;
15486;SDS011;7845;53.698;10.078;2022-09-13T17:38:09;5.30;;;1.47;;
15486;SDS011;7845;53.698;10.078;2022-09-13T17:40:35;5.27;;;1.57;;
15486;SDS011;7845;53.698;10.078;2022-09-13T17:43:00;4.97;;;1.40;;
15486;SDS011;7845;53.698;10.078;2022-09-13T17:45:26;7.60;;;1.70;;
15486;SDS011;7845;53.698;10.078;2022-09-13T17:47:52;8.03;;;1.50;;
15486;SDS011;7845;53.698;10.078;2022-09-13T17:50:18;4.80;;;1.20;;
15486;SDS011;7845;53.698;10.078;2022-09-13T17:52:45;6.10;;;1.10;;
15486;SDS011;7845;53.698;10.078;2022-09-13T17:55:11;4.10;;;1.00;;
15486;SDS011;7845;53.698;10.078;2022-09-13T17:57:36;5.90;;;1.30;;
15486;SDS011;7845;53.698;10.078;2022-09-13T18:00:03;5.00;;;1.00;;
15486;SDS011;7845;53.698;10.078;2022-09-13T18:02:30;4.93;;;1.10;;
15486;SDS011;7845;53.698;10.078;2022-09-13T18:04:55;4.97;;;1.00;;
15486;SDS011;7845;53.698;10.078;2022-09-13T18:07:20;5.10;;;1.00;;
15486;SDS011;7845;53.698;10.078;2022-09-13T18:09:46;6.10;;;1.10;;
15486;SDS011;7845;53.698;10.078;2022-09-13T18:12:11;6.37;;;1.10;;
15486;SDS011;7845;53.698;10.078;2022-09-13T18:14:37;4.17;;;0.90;;
15486;SDS011;7845;53.698;10.078;2022-09-13T18:17:03;7.77;;;1.00;;
15486;SDS011;7845;53.698;10.078;2022-09-13T18:19:35;7.07;;;1.30;;
15486;SDS011;7845;53.698;10.078;2022-09-13T18:22:00;6.47;;;0.90;;
15486;SDS011;7845;53.698;10.078;2022-09-13T18:24:26;6.40;;;1.03;;